Time;durP1;ratioP1;P1;durP2;ratioP2;P2;SDS_P1;SDS_P2;PMS_P1;PMS_P2;Temp;Humidity;BMP_temperature;BMP_pressure;BME280_temperature;BME280_humidity;BME280_pressure;Samples;Min_cycle;Max_cycle;Signal;HPM_P1;HPM_P2
2022/10/18 00:01:21;;;;;;;;;0.00;0.00;;;;;;;;4995104;28;45818;-92
2022/10/18 00:03:46;;;;;;;;;0.00;0.00;;;;;;;;4995811;28;45266;-93
2022/10/18 00:06:11;;;;;;;;;0.00;0.00;;;;;;;;4995294;28;45393;-92
2022/10/18 00:08:37;;;;;;;;;0.00;0.00;;;;;;;;4995243;28;48355;-92
2022/10/18 00:11:03;;;;;;;;;0.00;0.00;;;;;;;;4995442;28;45887;-93
2022/10/18 00:13:28;;;;;;;;;0.00;0.00;;;;;;;;4995661;28;45384;-92
2022/10/18 00:15:55;;;;;;;;;0.00;0.00;;;;;;;;4995003;28;45559;-93
2022/10/18 00:18:20;;;;;;;;;0.00;0.00;;;;;;;;4995659;28;48429;-92
2022/10/18 00:20:55;;;;;;;;;0.00;0.00;;;;;;;;4996162;28;45372;-92
2022/10/18 00:23:20;;;;;;;;;0.00;0.00;;;;;;;;4995653;28;45379;-93
2022/10/18 00:25:45;;;;;;;;;0.00;0.00;;;;;;;;4996626;28;45291;-93
2022/10/18 00:28:10;;;;;;;;;0.00;0.00;;;;;;;;5011994;28;47115;-92
2022/10/18 00:30:35;;;;;;;;;0.00;0.00;;;;;;;;5004335;28;46204;-93
2022/10/18 00:33:01;;;;;;;;;0.00;0.00;;;;;;;;4995251;28;45415;-92
2022/10/18 00:35:26;;;;;;;;;0.00;0.00;;;;;;;;4995035;28;45336;-92
2022/10/18 00:37:51;;;;;;;;;0.00;0.00;;;;;;;;4994373;28;47558;-92
2022/10/18 00:40:16;;;;;;;;;0.00;0.00;;;;;;;;4994788;28;45431;-94
2022/10/18 00:42:41;;;;;;;;;0.00;0.00;;;;;;;;4996348;28;45455;-93
2022/10/18 00:45:10;;;;;;;;;0.00;0.00;;;;;;;;5007898;28;45403;-93
2022/10/18 00:47:35;;;;;;;;;0.00;0.00;;;;;;;;5014147;28;47064;-92
2022/10/18 00:50:01;;;;;;;;;0.00;0.00;;;;;;;;5015680;28;45339;-93
2022/10/18 00:52:30;;;;;;;;;0.00;0.00;;;;;;;;5014987;28;45613;-92
2022/10/18 00:54:56;;;;;;;;;0.00;0.00;;;;;;;;4999691;28;45325;-91
2022/10/18 00:57:22;;;;;;;;;0.00;0.00;;;;;;;;4995179;28;47452;-92
2022/10/18 00:59:47;;;;;;;;;0.00;0.00;;;;;;;;4994712;28;46018;-93
2022/10/18 01:02:17;;;;;;;;;0.00;0.00;;;;;;;;4994386;28;45367;-92
2022/10/18 01:04:42;;;;;;;;;0.00;0.00;;;;;;;;4995270;28;45296;-93
2022/10/18 01:07:07;;;;;;;;;0.00;0.00;;;;;;;;4994632;28;47228;-92
2022/10/18 01:09:40;;;;;;;;;0.00;0.00;;;;;;;;4995108;28;45384;-92
2022/10/18 01:12:22;;;;;;;;;0.00;0.00;;;;;;;;5004309;28;45495;-92
2022/10/18 01:15:07;;;;;;;;;0.00;0.00;;;;;;;;5014586;28;45426;-92
2022/10/18 01:17:51;;;;;;;;;0.00;0.00;;;;;;;;5015783;28;46626;-92
2022/10/18 01:20:28;;;;;;;;;0.00;0.00;;;;;;;;5014051;28;45586;-93
2022/10/18 01:23:02;;;;;;;;;0.00;0.00;;;;;;;;5013720;28;45431;-94
2022/10/18 01:25:43;;;;;;;;;0.00;0.00;;;;;;;;5014012;28;45438;-93
2022/10/18 01:28:08;;;;;;;;;0.00;0.00;;;;;;;;4993789;28;47069;-93
2022/10/18 01:30:52;;;;;;;;;0.00;0.00;;;;;;;;5004490;28;45459;-93
2022/10/18 01:33:52;;;;;;;;;0.00;0.00;;;;;;;;5014315;28;45793;-93
2022/10/18 01:36:22;;;;;;;;;0.00;0.00;;;;;;;;4918664;28;45587;-92
2022/10/18 01:38:49;;;;;;;;;0.00;0.00;;;;;;;;4917911;28;47205;-92
2022/10/18 01:41:15;;;;;;;;;0.00;0.00;;;;;;;;4911616;28;46033;-94
2022/10/18 01:43:41;;;;;;;;;0.00;0.00;;;;;;;;4914567;28;45547;-93
2022/10/18 01:46:07;;;;;;;;;0.00;0.00;;;;;;;;4915164;28;45427;-91
2022/10/18 01:48:33;;;;;;;;;0.00;0.00;;;;;;;;4918094;28;47026;-92
2022/10/18 01:50:58;;;;;;;;;0.00;0.00;;;;;;;;4917491;28;45485;-91
2022/10/18 01:53:28;;;;;;;;;0.00;0.00;;;;;;;;4933833;28;45377;-91
2022/10/18 01:55:57;;;;;;;;;0.00;0.00;;;;;;;;4908829;28;45380;-92
2022/10/18 01:58:30;;;;;;;;;0.00;0.00;;;;;;;;4898728;28;48343;-92
2022/10/18 02:01:17;;;;;;;;;0.00;0.00;;;;;;;;4898334;28;45397;-92
2022/10/18 02:03:44;;;;;;;;;0.00;0.00;;;;;;;;4899363;28;45480;-92
2022/10/18 02:06:19;;;;;;;;;0.00;0.00;;;;;;;;4895704;29;45636;-91
2022/10/18 02:08:58;;;;;;;;;0.00;0.00;;;;;;;;4879494;29;47075;-92
2022/10/18 02:11:25;;;;;;;;;0.00;0.00;;;;;;;;4969083;28;45471;-92
2022/10/18 02:13:56;;;;;;;;;0.00;0.00;;;;;;;;4991533;28;45425;-92
2022/10/18 02:16:24;;;;;;;;;0.00;0.00;;;;;;;;4993056;28;45486;-92
2022/10/18 02:18:56;;;;;;;;;0.00;0.00;;;;;;;;4993134;28;47307;-92
2022/10/18 02:21:22;;;;;;;;;0.00;0.00;;;;;;;;4995775;28;45303;-92
2022/10/18 02:23:47;;;;;;;;;0.00;0.00;;;;;;;;4996272;28;45266;-92
2022/10/18 02:26:13;;;;;;;;;0.00;0.00;;;;;;;;4996528;28;45597;-92
2022/10/18 02:28:39;;;;;;;;;0.00;0.00;;;;;;;;4994259;28;47233;-93
2022/10/18 02:31:16;;;;;;;;;0.00;0.00;;;;;;;;4996828;28;45640;-93
2022/10/18 02:33:44;;;;;;;;;0.00;0.00;;;;;;;;4998023;28;45445;-91
2022/10/18 02:36:14;;;;;;;;;0.00;0.00;;;;;;;;4996226;28;45645;-92
2022/10/18 02:38:40;;;;;;;;;0.00;0.00;;;;;;;;4995978;28;47213;-93
2022/10/18 02:41:06;;;;;;;;;0.00;0.00;;;;;;;;4995889;28;45360;-92
2022/10/18 02:43:31;;;;;;;;;0.00;0.00;;;;;;;;5014471;28;45511;-91
2022/10/18 02:45:56;;;;;;;;;0.00;0.00;;;;;;;;5000132;28;45364;-92
2022/10/18 02:48:21;;;;;;;;;0.00;0.00;;;;;;;;4998090;28;48048;-92
2022/10/18 02:50:46;;;;;;;;;0.00;0.00;;;;;;;;4998565;28;45295;-92
2022/10/18 02:53:12;;;;;;;;;0.00;0.00;;;;;;;;4996065;28;45461;-92
2022/10/18 02:55:37;;;;;;;;;0.00;0.00;;;;;;;;5012564;28;45460;-91
2022/10/18 02:58:02;;;;;;;;;0.00;0.00;;;;;;;;5012846;28;47245;-92
2022/10/18 03:00:27;;;;;;;;;0.00;0.00;;;;;;;;5012124;28;45800;-92
2022/10/18 03:02:52;;;;;;;;;0.00;0.00;;;;;;;;5012888;28;45339;-91
2022/10/18 03:05:18;;;;;;;;;0.00;0.00;;;;;;;;5013303;28;45771;-93
2022/10/18 03:07:43;;;;;;;;;0.00;0.00;;;;;;;;5006554;28;48118;-92
2022/10/18 03:10:08;;;;;;;;;0.00;0.00;;;;;;;;5017388;28;45408;-92
2022/10/18 03:12:33;;;;;;;;;0.00;0.00;;;;;;;;5001045;28;45331;-92
2022/10/18 03:14:58;;;;;;;;;0.00;0.00;;;;;;;;5006803;28;45470;-92
2022/10/18 03:17:24;;;;;;;;;0.00;0.00;;;;;;;;5006570;28;47886;-92
2022/10/18 03:19:49;;;;;;;;;0.00;0.00;;;;;;;;5018202;28;45728;-93
2022/10/18 03:22:14;;;;;;;;;0.00;0.00;;;;;;;;5020022;28;45405;-92
2022/10/18 03:24:39;;;;;;;;;0.00;0.00;;;;;;;;5018836;28;45386;-92
2022/10/18 03:27:04;;;;;;;;;0.00;0.00;;;;;;;;5020153;28;47127;-93
2022/10/18 03:29:30;;;;;;;;;0.00;0.00;;;;;;;;5018448;28;45371;-93
2022/10/18 03:31:55;;;;;;;;;0.00;0.00;;;;;;;;5019128;28;45471;-92
2022/10/18 03:34:20;;;;;;;;;0.00;0.00;;;;;;;;5019453;28;45662;-93
2022/10/18 03:36:45;;;;;;;;;0.00;0.00;;;;;;;;5019224;28;48555;-93
2022/10/18 03:39:11;;;;;;;;;0.00;0.00;;;;;;;;5001640;28;45408;-92
2022/10/18 03:41:36;;;;;;;;;0.00;0.00;;;;;;;;4999609;28;45439;-93
2022/10/18 03:44:02;;;;;;;;;0.00;0.00;;;;;;;;5000043;28;45419;-92
2022/10/18 03:46:27;;;;;;;;;0.00;0.00;;;;;;;;4998924;28;47234;-92
2022/10/18 03:48:52;;;;;;;;;0.00;0.00;;;;;;;;5000240;28;45461;-93
2022/10/18 03:51:17;;;;;;;;;0.00;0.00;;;;;;;;4998560;28;45603;-92
2022/10/18 03:53:42;;;;;;;;;0.00;0.00;;;;;;;;4998562;28;45577;-92
2022/10/18 03:56:08;;;;;;;;;0.00;0.00;;;;;;;;4998614;28;47135;-92
2022/10/18 03:58:33;;;;;;;;;0.00;0.00;;;;;;;;4998783;28;45641;-92
2022/10/18 04:00:58;;;;;;;;;0.00;0.00;;;;;;;;4997985;28;45381;-92
2022/10/18 04:03:23;;;;;;;;;0.00;0.00;;;;;;;;4999319;28;45210;-93
2022/10/18 04:05:49;;;;;;;;;0.00;0.00;;;;;;;;4998300;28;47072;-92
2022/10/18 04:08:14;;;;;;;;;0.00;0.00;;;;;;;;4998882;28;45771;-92
2022/10/18 04:10:40;;;;;;;;;0.00;0.00;;;;;;;;4998874;28;45380;-92
2022/10/18 04:13:06;;;;;;;;;0.00;0.00;;;;;;;;4999450;28;45638;-92
2022/10/18 04:15:31;;;;;;;;;0.00;0.00;;;;;;;;5018944;28;45624;-91
2022/10/18 04:17:56;;;;;;;;;0.00;0.00;;;;;;;;5001964;28;45815;-92
2022/10/18 04:20:22;;;;;;;;;0.00;0.00;;;;;;;;5009548;28;45554;-91
2022/10/18 04:22:48;;;;;;;;;0.00;0.00;;;;;;;;5018882;28;45419;-91
2022/10/18 04:25:13;;;;;;;;;0.00;0.00;;;;;;;;5001072;28;47298;-91
2022/10/18 04:27:38;;;;;;;;;0.00;0.00;;;;;;;;5001008;28;45382;-92
2022/10/18 04:30:04;;;;;;;;;0.00;0.00;;;;;;;;5003671;28;45432;-92
2022/10/18 04:32:29;;;;;;;;;0.00;0.00;;;;;;;;5018496;28;45338;-92
2022/10/18 04:34:54;;;;;;;;;0.00;0.00;;;;;;;;5019052;28;47901;-92
2022/10/18 04:37:20;;;;;;;;;0.00;0.00;;;;;;;;5017944;28;45509;-93
2022/10/18 04:39:47;;;;;;;;;0.00;0.00;;;;;;;;5036892;28;45720;-92
2022/10/18 04:42:12;;;;;;;;;0.00;0.00;;;;;;;;5004700;28;45620;-92
2022/10/18 04:44:39;;;;;;;;;0.00;0.00;;;;;;;;5038321;28;45321;-92
2022/10/18 04:47:05;;;;;;;;;0.00;0.00;;;;;;;;5030122;28;45325;-92
2022/10/18 04:49:31;;;;;;;;;0.00;0.00;;;;;;;;4999030;28;45602;-93
2022/10/18 04:51:56;;;;;;;;;0.00;0.00;;;;;;;;5031849;28;45463;-93
2022/10/18 04:54:22;;;;;;;;;0.00;0.00;;;;;;;;5019374;28;47884;-91
2022/10/18 04:56:47;;;;;;;;;0.00;0.00;;;;;;;;5020176;28;45845;-93
2022/10/18 04:59:12;;;;;;;;;0.00;0.00;;;;;;;;5019141;28;45422;-93
2022/10/18 05:01:37;;;;;;;;;0.00;0.00;;;;;;;;5019079;28;45358;-93
2022/10/18 05:04:02;;;;;;;;;0.00;0.00;;;;;;;;5018223;28;47211;-92
2022/10/18 05:06:27;;;;;;;;;0.00;0.00;;;;;;;;5005047;28;45494;-91
2022/10/18 05:08:53;;;;;;;;;0.00;0.00;;;;;;;;4997569;28;45370;-93
2022/10/18 05:11:18;;;;;;;;;0.00;0.00;;;;;;;;4997964;28;45648;-93
2022/10/18 05:13:43;;;;;;;;;0.00;0.00;;;;;;;;5016471;28;47161;-92
2022/10/18 05:16:08;;;;;;;;;0.00;0.00;;;;;;;;5016969;28;45370;-92
2022/10/18 05:18:33;;;;;;;;;0.00;0.00;;;;;;;;5017618;28;45324;-92
2022/10/18 05:20:59;;;;;;;;;0.00;0.00;;;;;;;;5034638;28;45461;-92
2022/10/18 05:23:24;;;;;;;;;0.00;0.00;;;;;;;;5017194;28;46992;-91
2022/10/18 05:25:49;;;;;;;;;0.00;0.00;;;;;;;;5017339;28;45753;-93
2022/10/18 05:28:15;;;;;;;;;0.00;0.00;;;;;;;;5017094;28;45354;-93
2022/10/18 05:30:40;;;;;;;;;0.00;0.00;;;;;;;;5006589;28;45445;-92
2022/10/18 05:33:06;;;;;;;;;0.00;0.00;;;;;;;;4997217;28;47201;-93
2022/10/18 05:35:32;;;;;;;;;0.00;0.00;;;;;;;;4997694;28;45975;-93
2022/10/18 05:37:57;;;;;;;;;0.00;0.00;;;;;;;;4997720;28;45625;-94
2022/10/18 05:40:22;;;;;;;;;0.00;0.00;;;;;;;;5007518;28;45603;-94
2022/10/18 05:42:50;;;;;;;;;0.00;0.00;;;;;;;;5017458;28;46889;-94
2022/10/18 05:45:15;;;;;;;;;0.00;0.00;;;;;;;;5035355;28;45384;-93
2022/10/18 05:47:40;;;;;;;;;0.00;0.00;;;;;;;;5037560;28;45410;-91
2022/10/18 05:50:06;;;;;;;;;0.00;0.00;;;;;;;;5024983;28;45702;-93
2022/10/18 05:52:31;;;;;;;;;15.00;15.00;;;;;;;;5024291;28;47007;-92
2022/10/18 05:54:56;;;;;;;;;0.00;0.00;;;;;;;;5024632;28;45388;-93
2022/10/18 05:57:21;;;;;;;;;0.00;0.00;;;;;;;;5023393;28;45481;-92
2022/10/18 05:59:46;;;;;;;;;0.00;0.00;;;;;;;;5018660;28;45429;-94
2022/10/18 06:02:12;;;;;;;;;0.00;0.00;;;;;;;;5009224;28;47087;-92
2022/10/18 06:04:37;;;;;;;;;0.00;0.00;;;;;;;;5016079;28;45200;-91
2022/10/18 06:07:03;;;;;;;;;0.00;0.00;;;;;;;;5020168;28;45421;-92
2022/10/18 06:09:29;;;;;;;;;0.00;0.00;;;;;;;;5002450;28;45465;-91
2022/10/18 06:11:56;;;;;;;;;0.00;0.00;;;;;;;;5020064;28;48025;-92
2022/10/18 06:14:21;;;;;;;;;0.00;0.00;;;;;;;;5035178;28;45481;-94
2022/10/18 06:16:46;;;;;;;;;0.00;0.00;;;;;;;;5028803;28;45441;-92
2022/10/18 06:19:11;;;;;;;;;0.00;0.00;;;;;;;;5019042;28;45589;-93
2022/10/18 06:21:37;;;;;;;;;0.00;0.00;;;;;;;;5016685;28;48129;-91
2022/10/18 06:24:02;;;;;;;;;0.00;0.00;;;;;;;;5019673;28;45402;-86
2022/10/18 06:26:27;;;;;;;;;0.00;0.00;;;;;;;;5019490;28;45546;-88
2022/10/18 06:28:52;;;;;;;;;0.00;0.00;;;;;;;;5040258;28;45672;-91
2022/10/18 06:31:19;;;;;;;;;0.00;0.00;;;;;;;;5015467;28;47432;-88
2022/10/18 06:33:44;;;;;;;;;0.00;0.00;;;;;;;;5036571;28;45398;-89
2022/10/18 06:36:11;;;;;;;;;0.00;0.00;;;;;;;;5016934;28;45562;-89
2022/10/18 06:38:36;;;;;;;;;0.00;0.00;;;;;;;;5024672;28;45663;-90
2022/10/18 06:41:02;;;;;;;;;0.00;0.00;;;;;;;;5036676;28;45311;-88
2022/10/18 06:43:27;;;;;;;;;0.00;0.00;;;;;;;;5036663;28;45406;-89
2022/10/18 06:45:53;;;;;;;;;0.00;0.00;;;;;;;;5036343;28;45374;-90
2022/10/18 06:48:19;;;;;;;;;0.00;0.00;;;;;;;;5011918;28;45564;-87
2022/10/18 06:50:55;;;;;;;;;0.00;0.00;;;;;;;;5028966;28;45499;-88
2022/10/18 06:53:20;;;;;;;;;0.00;0.00;;;;;;;;5024718;28;45652;-90
2022/10/18 06:55:46;;;;;;;;;0.00;0.00;;;;;;;;5030429;28;45497;-89
2022/10/18 06:58:11;;;;;;;;;0.00;0.00;;;;;;;;5002651;28;45661;-89
2022/10/18 07:00:36;;;;;;;;;0.00;0.00;;;;;;;;5026144;28;45578;-87
2022/10/18 07:03:01;;;;;;;;;0.00;0.00;;;;;;;;5026001;28;45460;-88
2022/10/18 07:05:26;;;;;;;;;0.00;0.00;;;;;;;;5028131;28;45358;-91
2022/10/18 07:07:52;;;;;;;;;0.00;0.00;;;;;;;;5004754;28;45700;-88
2022/10/18 07:10:17;;;;;;;;;0.00;0.00;;;;;;;;5032605;28;45474;-88
2022/10/18 07:12:42;;;;;;;;;0.00;0.00;;;;;;;;5026160;28;45534;-88
2022/10/18 07:15:07;;;;;;;;;0.00;0.00;;;;;;;;5029377;28;45350;-88
2022/10/18 07:17:33;;;;;;;;;0.00;0.00;;;;;;;;5027978;28;45538;-88
2022/10/18 07:19:58;;;;;;;;;0.00;0.00;;;;;;;;5026762;28;45452;-88
2022/10/18 07:22:23;;;;;;;;;0.00;0.00;;;;;;;;5033432;28;45406;-87
2022/10/18 07:24:48;;;;;;;;;0.00;0.00;;;;;;;;5027263;28;45427;-87
2022/10/18 07:27:13;;;;;;;;;0.00;0.00;;;;;;;;5008063;28;45793;-87
2022/10/18 07:29:39;;;;;;;;;0.00;0.00;;;;;;;;5035658;28;45660;-90
2022/10/18 07:32:05;;;;;;;;;0.00;0.00;;;;;;;;5006744;28;45652;-89
2022/10/18 07:34:30;;;;;;;;;0.00;0.00;;;;;;;;5024221;28;45627;-89
2022/10/18 07:36:55;;;;;;;;;0.00;0.00;;;;;;;;5030095;28;45643;-89
2022/10/18 07:39:20;;;;;;;;;0.00;0.00;;;;;;;;5006151;28;47095;-88
2022/10/18 07:41:46;;;;;;;;;0.00;0.00;;;;;;;;5009964;28;45611;-88
2022/10/18 07:44:11;;;;;;;;;0.00;0.00;;;;;;;;5022381;28;45583;-86
2022/10/18 07:46:36;;;;;;;;;0.00;0.00;;;;;;;;5022448;28;45281;-87
2022/10/18 07:49:01;;;;;;;;;0.00;0.00;;;;;;;;5015990;28;46217;-86
2022/10/18 07:51:27;;;;;;;;;0.00;0.00;;;;;;;;5027856;28;45466;-89
2022/10/18 07:53:52;;;;;;;;;0.00;0.00;;;;;;;;5006950;28;45726;-92
2022/10/18 07:56:19;;;;;;;;;0.00;0.00;;;;;;;;5023708;28;45443;-90
2022/10/18 07:58:45;;;;;;;;;0.00;0.00;;;;;;;;5010071;28;48240;-90
2022/10/18 08:01:11;;;;;;;;;0.00;0.00;;;;;;;;5008475;28;45750;-92
2022/10/18 08:03:37;;;;;;;;;0.00;0.00;;;;;;;;5007944;28;45511;-92
2022/10/18 08:06:03;;;;;;;;;0.00;0.00;;;;;;;;5003848;28;45510;-88
2022/10/18 08:08:29;;;;;;;;;0.00;0.00;;;;;;;;4998181;28;46928;-90
2022/10/18 08:10:54;;;;;;;;;0.00;0.00;;;;;;;;5005099;28;45593;-88
2022/10/18 08:13:19;;;;;;;;;0.00;0.00;;;;;;;;5003617;28;45367;-90
2022/10/18 08:15:45;;;;;;;;;0.00;0.00;;;;;;;;4995077;28;45526;-90
2022/10/18 08:18:10;;;;;;;;;0.00;0.00;;;;;;;;5007547;28;45766;-91
2022/10/18 08:20:36;;;;;;;;;0.00;0.00;;;;;;;;5002752;28;45554;-93
2022/10/18 08:23:02;;;;;;;;;0.00;0.00;;;;;;;;5008345;28;45574;-94
2022/10/18 08:25:28;;;;;;;;;0.00;0.00;;;;;;;;5004785;28;45592;-90
2022/10/18 08:27:53;;;;;;;;;0.00;0.00;;;;;;;;5008867;28;45372;-92
2022/10/18 08:30:18;;;;;;;;;0.00;0.00;;;;;;;;5025525;28;45297;-96
2022/10/18 08:32:43;;;;;;;;;0.00;0.00;;;;;;;;5009248;28;45562;-96
2022/10/18 08:35:08;;;;;;;;;0.00;0.00;;;;;;;;5009827;28;45434;-89
2022/10/18 08:37:34;;;;;;;;;0.00;0.00;;;;;;;;5006979;28;46335;-89
2022/10/18 08:39:59;;;;;;;;;0.00;0.00;;;;;;;;5006244;28;45372;-90
2022/10/18 08:42:27;;;;;;;;;0.00;0.00;;;;;;;;5006583;28;45462;-91
2022/10/18 08:44:53;;;;;;;;;0.00;0.00;;;;;;;;5012572;28;45679;-88
2022/10/18 08:47:41;;;;;;;;;0.00;0.00;;;;;;;;5001688;28;45286;-85
2022/10/18 08:50:11;;;;;;;;;0.00;0.00;;;;;;;;4995608;28;45823;-90
2022/10/18 08:52:51;;;;;;;;;0.00;0.00;;;;;;;;5010710;28;45473;-88
2022/10/18 08:55:37;;;;;;;;;0.00;0.00;;;;;;;;5011863;28;45457;-92
2022/10/18 08:58:16;;;;;;;;;0.00;0.00;;;;;;;;5012764;28;47962;-89
2022/10/18 09:00:45;;;;;;;;;0.00;0.00;;;;;;;;5011325;28;45505;-88
2022/10/18 09:03:33;;;;;;;;;0.00;0.00;;;;;;;;5012606;28;45459;-91
2022/10/18 09:06:28;;;;;;;;;0.00;0.00;;;;;;;;4943940;28;45885;-85
2022/10/18 09:08:56;;;;;;;;;0.00;0.00;;;;;;;;4933012;28;47238;-84
2022/10/18 09:11:43;;;;;;;;;0.00;0.00;;;;;;;;4940626;28;45740;-88
2022/10/18 09:14:24;;;;;;;;;0.00;0.00;;;;;;;;4920857;28;45556;-85
2022/10/18 09:16:54;;;;;;;;;0.00;0.00;;;;;;;;4926985;28;45463;-89
2022/10/18 09:19:19;;;;;;;;;0.00;0.00;;;;;;;;4942923;28;46779;-92
2022/10/18 09:21:44;;;;;;;;;0.00;0.00;;;;;;;;4949369;28;45516;-91
2022/10/18 09:24:10;;;;;;;;;0.00;0.00;;;;;;;;4931489;28;45523;-93
2022/10/18 09:26:42;;;;;;;;;0.00;0.00;;;;;;;;4945339;28;45354;-91
2022/10/18 09:29:16;;;;;;;;;0.00;0.00;;;;;;;;4927092;28;48278;-90
2022/10/18 09:31:49;;;;;;;;;0.00;0.00;;;;;;;;4942165;28;45566;-91
2022/10/18 09:34:23;;;;;;;;;0.00;0.00;;;;;;;;4934055;28;45563;-92
2022/10/18 09:36:50;;;;;;;;;0.00;0.00;;;;;;;;4936371;28;46062;-87
2022/10/18 09:39:17;;;;;;;;;0.00;0.00;;;;;;;;4926281;28;46796;-86
2022/10/18 09:41:48;;;;;;;;;0.00;0.00;;;;;;;;4931625;28;45537;-87
2022/10/18 09:44:32;;;;;;;;;0.00;0.00;;;;;;;;5007595;28;46228;-86
2022/10/18 09:47:30;;;;;;;;;0.00;0.00;;;;;;;;5006266;28;45537;-86
2022/10/18 09:49:57;;;;;;;;;0.00;0.00;;;;;;;;4935825;28;47298;-86
2022/10/18 09:52:30;;;;;;;;;0.00;0.00;;;;;;;;4950626;28;45373;-87
2022/10/18 09:54:59;;;;;;;;;0.00;0.00;;;;;;;;4929653;28;45482;-86
2022/10/18 09:57:31;;;;;;;;;0.00;0.00;;;;;;;;4924341;28;45476;-86
2022/10/18 09:59:56;;;;;;;;;0.00;0.00;;;;;;;;4951727;28;46252;-85
2022/10/18 10:02:22;;;;;;;;;0.00;0.00;;;;;;;;4944765;28;45708;-86
2022/10/18 10:04:47;;;;;;;;;0.00;0.00;;;;;;;;4944669;28;45878;-86
2022/10/18 10:07:16;;;;;;;;;0.00;0.00;;;;;;;;4919467;28;45447;-86
2022/10/18 10:09:46;;;;;;;;;0.00;0.00;;;;;;;;4921282;28;45741;-86
2022/10/18 10:12:25;;;;;;;;;0.00;0.00;;;;;;;;4943686;28;45512;-91
2022/10/18 10:14:50;;;;;;;;;0.00;0.00;;;;;;;;4932831;28;45583;-91
2022/10/18 10:17:27;;;;;;;;;0.00;0.00;;;;;;;;4928330;28;45513;-90
2022/10/18 10:19:52;;;;;;;;;0.00;0.00;;;;;;;;4935424;28;48275;-92
2022/10/18 10:22:24;;;;;;;;;0.00;0.00;;;;;;;;4949567;28;45914;-90
2022/10/18 10:24:51;;;;;;;;;0.00;0.00;;;;;;;;4964413;28;45578;-88
2022/10/18 10:27:19;;;;;;;;;0.00;0.00;;;;;;;;5004870;28;45507;-88
2022/10/18 10:29:45;;;;;;;;;0.00;0.00;;;;;;;;5007034;28;48008;-88
2022/10/18 10:32:11;;;;;;;;;0.00;0.00;;;;;;;;4997612;28;45478;-89
2022/10/18 10:34:37;;;;;;;;;0.00;0.00;;;;;;;;5006465;28;45480;-86
2022/10/18 10:37:03;;;;;;;;;0.00;0.00;;;;;;;;5005355;28;45458;-90
2022/10/18 10:39:29;;;;;;;;;0.00;0.00;;;;;;;;5006062;28;46418;-87
2022/10/18 10:41:56;;;;;;;;;0.00;0.00;;;;;;;;5008919;28;45541;-88
2022/10/18 10:44:22;;;;;;;;;0.00;0.00;;;;;;;;5008323;28;45862;-89
2022/10/18 10:46:49;;;;;;;;;0.00;0.00;;;;;;;;5004682;28;45494;-89
2022/10/18 10:49:19;;;;;;;;;0.00;0.00;;;;;;;;5007911;28;45483;-88
2022/10/18 10:51:45;;;;;;;;;0.00;0.00;;;;;;;;5005100;28;45576;-92
2022/10/18 10:54:15;;;;;;;;;0.00;0.00;;;;;;;;5004377;28;45634;-91
2022/10/18 10:56:49;;;;;;;;;0.00;0.00;;;;;;;;5006969;28;45682;-92
2022/10/18 10:59:16;;;;;;;;;0.00;0.00;;;;;;;;5007494;28;48191;-93
2022/10/18 11:01:42;;;;;;;;;0.00;0.00;;;;;;;;5012505;28;45377;-93
2022/10/18 11:04:25;;;;;;;;;0.00;0.00;;;;;;;;5004673;28;45524;-89
2022/10/18 11:07:08;;;;;;;;;0.00;0.00;;;;;;;;5021037;28;45701;-88
2022/10/18 11:09:37;;;;;;;;;0.00;0.00;;;;;;;;5016229;28;47280;-90
2022/10/18 11:12:21;;;;;;;;;0.00;0.00;;;;;;;;5007480;28;45447;-90
2022/10/18 11:14:49;;;;;;;;;0.00;0.00;;;;;;;;5007661;28;45728;-91
2022/10/18 11:17:20;;;;;;;;;0.00;0.00;;;;;;;;5015997;28;45367;-90
2022/10/18 11:19:48;;;;;;;;;0.00;0.00;;;;;;;;5026536;28;45627;-86
2022/10/18 11:22:20;;;;;;;;;0.00;0.00;;;;;;;;5007903;28;46188;-87
2022/10/18 11:24:45;;;;;;;;;0.00;0.00;;;;;;;;5025478;28;45557;-88
2022/10/18 11:27:31;;;;;;;;;0.00;0.00;;;;;;;;5009073;28;45478;-87
2022/10/18 11:30:14;;;;;;;;;0.00;0.00;;;;;;;;5007563;28;47335;-87
2022/10/18 11:32:56;;;;;;;;;0.00;0.00;;;;;;;;5021062;28;45495;-87
2022/10/18 11:35:44;;;;;;;;;0.00;0.00;;;;;;;;5017293;28;45512;-87
2022/10/18 11:38:17;;;;;;;;;0.00;0.00;;;;;;;;5013591;28;45513;-86
2022/10/18 11:40:58;;;;;;;;;0.00;0.00;;;;;;;;5024650;28;45887;-87
2022/10/18 11:43:36;;;;;;;;;0.00;0.00;;;;;;;;5023941;28;45445;-86
2022/10/18 11:46:07;;;;;;;;;0.00;0.00;;;;;;;;5008032;28;45720;-88
2022/10/18 11:48:47;;;;;;;;;0.00;0.00;;;;;;;;5030044;28;45795;-87
2022/10/18 11:51:12;;;;;;;;;0.00;0.00;;;;;;;;5019506;28;45548;-86
2022/10/18 11:53:52;;;;;;;;;0.00;0.00;;;;;;;;5030402;28;45362;-86
2022/10/18 11:56:20;;;;;;;;;0.00;0.00;;;;;;;;5027812;28;45421;-86
2022/10/18 11:58:48;;;;;;;;;0.00;0.00;;;;;;;;5031933;28;45653;-86
2022/10/18 12:01:16;;;;;;;;;0.00;0.00;;;;;;;;5025137;28;45587;-87
2022/10/18 12:03:51;;;;;;;;;0.00;0.00;;;;;;;;5002043;28;46363;-87
2022/10/18 12:06:19;;;;;;;;;0.00;0.00;;;;;;;;5006590;28;45627;-87
2022/10/18 12:08:46;;;;;;;;;0.00;0.00;;;;;;;;5014463;28;45430;-86
2022/10/18 12:11:17;;;;;;;;;0.00;0.00;;;;;;;;5022656;28;46883;-85
2022/10/18 12:13:48;;;;;;;;;0.00;0.00;;;;;;;;5010688;28;45997;-86
2022/10/18 12:16:14;;;;;;;;;0.00;0.00;;;;;;;;5009098;28;45442;-87
2022/10/18 12:18:53;;;;;;;;;0.00;0.00;;;;;;;;5011135;28;45604;-87
2022/10/18 12:21:20;;;;;;;;;0.00;0.00;;;;;;;;5025735;28;46409;-87
2022/10/18 12:23:50;;;;;;;;;0.00;0.00;;;;;;;;5001816;28;45543;-87
2022/10/18 12:26:16;;;;;;;;;0.00;0.00;;;;;;;;5005457;28;45946;-88
2022/10/18 12:29:01;;;;;;;;;0.00;0.00;;;;;;;;5026138;28;45529;-87
2022/10/18 12:31:32;;;;;;;;;0.00;0.00;;;;;;;;5011661;28;47752;-87
2022/10/18 12:34:00;;;;;;;;;0.00;0.00;;;;;;;;5011248;28;45521;-87
2022/10/18 12:36:45;;;;;;;;;0.00;0.00;;;;;;;;5029932;28;45615;-87
2022/10/18 12:39:25;;;;;;;;;0.00;0.00;;;;;;;;4908054;28;45576;-87
2022/10/18 12:41:53;;;;;;;;;0.00;0.00;;;;;;;;4915578;28;47025;-87
2022/10/18 12:44:20;;;;;;;;;0.00;0.00;;;;;;;;4922269;28;45761;-92
2022/10/18 12:46:50;;;;;;;;;0.00;0.00;;;;;;;;4931854;28;45555;-91
2022/10/18 12:49:18;;;;;;;;;0.00;0.00;;;;;;;;4932923;28;45651;-91
2022/10/18 12:51:50;;;;;;;;;0.00;0.00;;;;;;;;4933143;28;45597;-92
2022/10/18 12:54:17;;;;;;;;;0.00;0.00;;;;;;;;4911381;28;45940;-94
2022/10/18 12:56:42;;;;;;;;;0.00;0.00;;;;;;;;4913356;28;45532;-93
2022/10/18 12:59:14;;;;;;;;;0.00;0.00;;;;;;;;4910365;28;45636;-93
2022/10/18 13:01:54;;;;;;;;;0.00;0.00;;;;;;;;4914241;28;47897;-94
2022/10/18 13:04:28;;;;;;;;;0.00;0.00;;;;;;;;4930832;28;45646;-94
2022/10/18 13:06:56;;;;;;;;;0.00;0.00;;;;;;;;4937077;28;45533;-94
2022/10/18 13:09:22;;;;;;;;;0.00;0.00;;;;;;;;4919658;28;45670;-93
2022/10/18 13:11:47;;;;;;;;;0.00;0.00;;;;;;;;4917326;28;47135;-94
2022/10/18 13:14:22;;;;;;;;;0.00;0.00;;;;;;;;4912541;28;45485;-93
2022/10/18 13:17:00;;;;;;;;;0.00;0.00;;;;;;;;4994994;28;45787;-93
2022/10/18 13:19:40;;;;;;;;;0.00;0.00;;;;;;;;5030655;28;45581;-93
2022/10/18 13:22:11;;;;;;;;;0.00;0.00;;;;;;;;5033957;28;45447;-95
2022/10/18 13:24:45;;;;;;;;;0.00;0.00;;;;;;;;5021823;28;46462;-94
2022/10/18 13:27:30;;;;;;;;;0.00;0.00;;;;;;;;5011393;28;45526;-95
2022/10/18 13:30:13;;;;;;;;;0.00;0.00;;;;;;;;5011969;28;45430;-92
2022/10/18 13:32:45;;;;;;;;;0.00;0.00;;;;;;;;5018033;28;47384;-95
2022/10/18 13:35:28;;;;;;;;;0.00;0.00;;;;;;;;5031936;28;45403;-94
2022/10/18 13:37:58;;;;;;;;;0.00;0.00;;;;;;;;5007781;28;45474;-92
2022/10/18 13:40:24;;;;;;;;;0.00;0.00;;;;;;;;5008143;28;45650;-94
2022/10/18 13:42:50;;;;;;;;;0.00;0.00;;;;;;;;5008010;28;47217;-95
2022/10/18 13:45:30;;;;;;;;;0.00;0.00;;;;;;;;5029571;28;45711;-95
2022/10/18 13:47:56;;;;;;;;;0.00;0.00;;;;;;;;5007064;28;45365;-94
2022/10/18 13:50:25;;;;;;;;;0.00;0.00;;;;;;;;5021552;28;45499;-94
2022/10/18 13:53:09;;;;;;;;;0.00;0.00;;;;;;;;5008519;28;47892;-96
2022/10/18 13:55:53;;;;;;;;;0.00;0.00;;;;;;;;5012621;28;46810;-93
2022/10/18 13:58:37;;;;;;;;;0.00;0.00;;;;;;;;5007812;28;45641;-90
2022/10/18 14:01:21;;;;;;;;;0.00;0.00;;;;;;;;5002902;28;45682;-93
2022/10/18 14:04:05;;;;;;;;;0.00;0.00;;;;;;;;5001942;28;47038;-93
2022/10/18 14:06:43;;;;;;;;;0.00;0.00;;;;;;;;5005171;28;45572;-92
2022/10/18 14:09:12;;;;;;;;;0.00;0.00;;;;;;;;5018664;28;45350;-92
2022/10/18 14:11:37;;;;;;;;;0.00;0.00;;;;;;;;5029745;28;45598;-91
2022/10/18 14:14:08;;;;;;;;;0.00;0.00;;;;;;;;5011104;28;47360;-92
2022/10/18 14:16:37;;;;;;;;;0.00;0.00;;;;;;;;5024776;28;45575;-94
2022/10/18 14:19:15;;;;;;;;;0.00;0.00;;;;;;;;5009172;28;45492;-88
2022/10/18 14:21:43;;;;;;;;;0.00;0.00;;;;;;;;5030995;28;45561;-88
2022/10/18 14:24:16;;;;;;;;;0.00;0.00;;;;;;;;5012406;28;47258;-87
2022/10/18 14:26:41;;;;;;;;;0.00;0.00;;;;;;;;5008759;28;46153;-87
2022/10/18 14:29:15;;;;;;;;;0.00;0.00;;;;;;;;5011550;28;45559;-87
2022/10/18 14:31:41;;;;;;;;;0.00;0.00;;;;;;;;5006292;28;45674;-87
2022/10/18 14:34:11;;;;;;;;;0.00;0.00;;;;;;;;5016709;28;48701;-88
2022/10/18 14:36:41;;;;;;;;;0.00;0.00;;;;;;;;5013228;28;46089;-87
2022/10/18 14:39:15;;;;;;;;;0.00;0.00;;;;;;;;5009060;28;45453;-87
2022/10/18 14:41:51;;;;;;;;;51.67;45.67;;;;;;;;5022504;28;45481;-88
2022/10/18 14:44:23;;;;;;;;;0.00;0.00;;;;;;;;5010644;28;47256;-87
2022/10/18 14:46:57;;;;;;;;;0.00;0.00;;;;;;;;5012882;28;45932;-93
2022/10/18 14:49:23;;;;;;;;;0.00;0.00;;;;;;;;5018608;28;45629;-91
2022/10/18 14:51:50;;;;;;;;;0.00;0.00;;;;;;;;5016193;28;45597;-93
2022/10/18 14:54:18;;;;;;;;;0.00;0.00;;;;;;;;5031519;28;45584;-93